Berlin — 9HA2295 — position and weather

sailwx.info

Track history (hours):
 
Tides and Currents Weather Stations Pressure Air Temp Water Temp Dewpoint Dewpoint Depression Visibility Wind Speed Wind Dir Waves Ship Positions

Berlin

Last reported at 2016-Sep-29 21:29 UTC. Time now 2016-Sep-29 22:06 UTC.
Position N 42°30' E 010°26'.

Length 140 m; draft 5 m.

Type: Ship. MMSI: 248277000.

Date/timePositionNaut miles runAvg speedWind from/ knotsBaromVisibWave heightAir tempDewpointWater temp
2016-Sep-29 21:29N 42°30' E 010°26'30910.2
2016-Sep-28 15:14N 38°51' E 015°13'3714.0
2016-Sep-28 12:33N 38°20' E 015°40'13 3.2
2016-Sep-28 08:33N 38°08' E 015°39'17 3.3
2016-Sep-28 03:33N 37°52' E 015°47'  
2016-Sep-25 00:33N 37°16' E 025°28'18 9.1
2016-Sep-24 22:33N 37°26' E 025°08'4 3.7
2016-Sep-24 21:33N 37°28' E 025°12'6 2.7
2016-Sep-24 19:29N 37°28' E 025°19'0 0.0
2016-Sep-24 18:29N 37°28' E 025°19'0 0.0
2016-Sep-24 17:29N 37°28' E 025°19'0 0.0
2016-Sep-24 16:29N 37°28' E 025°19'0 0.2
2016-Sep-24 14:33N 37°28' E 025°19'14 6.9
2016-Sep-24 12:33N 37°30' E 025°02'16 1.8
2016-Sep-24 03:32N 37°31' E 024°42'1414.0
2016-Sep-24 02:33N 37°30' E 024°25'1414.1
2016-Sep-24 01:33N 37°30' E 024°07'1413.9
2016-Sep-24 00:33N 37°36' E 023°51'7310.3
2016-Sep-23 17:28N 38°11' E 022°30'31911.0
2016-Sep-22 12:33N 37°53' E 015°45'21 2.6
2016-Sep-22 04:34N 38°12' E 015°34'8 8.0
2016-Sep-22 03:33N 38°19' E 015°38'3210.7
2016-Sep-22 00:33N 38°42' E 015°09'1211.5
2016-Sep-21 23:32N 38°50' E 014°58'29513.9
2016-Sep-21 02:15N 42°23' E 010°29'15813.5
2016-Sep-20 14:33N 43°39' E 007°19'3 2.7
2016-Sep-20 13:33N 43°42' E 007°17'0 0.0
2016-Sep-20 10:27N 43°42' E 007°17'0 0.0
2016-Sep-20 08:27N 43°42' E 007°17'0 0.0
2016-Sep-20 07:33N 43°42' E 007°17'0 0.0
2016-Sep-20 06:33N 43°42' E 007°17'26 6.4
2016-Sep-20 02:33N 43°36' E 007°52'3712.4
2016-Sep-19 23:33N 43°34' E 008°43'  
Track history (hours):
 
Tides and Currents Weather Stations Pressure Air Temp Water Temp Dewpoint Dewpoint Depression Visibility Wind Speed Wind Dir Waves Ship Positions

Berlin

Last reported at 2016-Sep-29 21:29 UTC. Time now 2016-Sep-29 22:06 UTC.
Position N 42°30' E 010°26'.

Length 140 m; draft 5 m.

Type: Ship. MMSI: 248277000.

Date/timePositionNaut miles runAvg speedWind from/ knotsBaromVisibWave heightAir tempDewpointWater temp
2016-Sep-29 21:29N 42°30' E 010°26'30910.2
2016-Sep-28 15:14N 38°51' E 015°13'3714.0
2016-Sep-28 12:33N 38°20' E 015°40'13 3.2
2016-Sep-28 08:33N 38°08' E 015°39'17 3.3
2016-Sep-28 03:33N 37°52' E 015°47'  
2016-Sep-25 00:33N 37°16' E 025°28'18 9.1
2016-Sep-24 22:33N 37°26' E 025°08'4 3.7
2016-Sep-24 21:33N 37°28' E 025°12'6 2.7
2016-Sep-24 19:29N 37°28' E 025°19'0 0.0
2016-Sep-24 18:29N 37°28' E 025°19'0 0.0
2016-Sep-24 17:29N 37°28' E 025°19'0 0.0
2016-Sep-24 16:29N 37°28' E 025°19'0 0.2
2016-Sep-24 14:33N 37°28' E 025°19'14 6.9
2016-Sep-24 12:33N 37°30' E 025°02'16 1.8
2016-Sep-24 03:32N 37°31' E 024°42'1414.0
2016-Sep-24 02:33N 37°30' E 024°25'1414.1
2016-Sep-24 01:33N 37°30' E 024°07'1413.9
2016-Sep-24 00:33N 37°36' E 023°51'7310.3
2016-Sep-23 17:28N 38°11' E 022°30'31911.0
2016-Sep-22 12:33N 37°53' E 015°45'21 2.6
2016-Sep-22 04:34N 38°12' E 015°34'8 8.0
2016-Sep-22 03:33N 38°19' E 015°38'3210.7
2016-Sep-22 00:33N 38°42' E 015°09'1211.5
2016-Sep-21 23:32N 38°50' E 014°58'29513.9
2016-Sep-21 02:15N 42°23' E 010°29'15813.5
2016-Sep-20 14:33N 43°39' E 007°19'3 2.7
2016-Sep-20 13:33N 43°42' E 007°17'0 0.0
2016-Sep-20 10:27N 43°42' E 007°17'0 0.0
2016-Sep-20 08:27N 43°42' E 007°17'0 0.0
2016-Sep-20 07:33N 43°42' E 007°17'0 0.0
2016-Sep-20 06:33N 43°42' E 007°17'26 6.4
2016-Sep-20 02:33N 43°36' E 007°52'3712.4
2016-Sep-19 23:33N 43°34' E 008°43'  

Dump ship's entire track history